createdAt,value
2018-12-26T00:00:08.028Z,75.79
2018-12-26T00:02:35.279Z,75.53
2018-12-26T00:05:02.621Z,75.61
2018-12-26T00:07:30.158Z,75.88
2018-12-26T00:09:57.444Z,76.02
2018-12-26T00:12:24.742Z,76.30
2018-12-26T00:14:52.231Z,76.09
2018-12-26T00:17:19.467Z,75.84
2018-12-26T00:19:46.675Z,75.91
2018-12-26T00:22:14.004Z,75.90
2018-12-26T00:24:41.257Z,75.92
2018-12-26T00:27:08.480Z,76.51
2018-12-26T00:29:35.764Z,76.23
2018-12-26T00:32:02.997Z,76.77
2018-12-26T00:34:30.240Z,76.56
2018-12-26T00:36:57.552Z,76.98
2018-12-26T00:39:24.793Z,76.81
2018-12-26T00:41:52.006Z,76.70
2018-12-26T00:44:19.251Z,77.27
2018-12-26T00:46:46.462Z,77.32
2018-12-26T00:49:13.714Z,78.13
2018-12-26T00:51:40.985Z,78.12
2018-12-26T00:54:08.195Z,77.96
2018-12-26T00:56:35.433Z,78.03
2018-12-26T00:59:02.659Z,78.33
2018-12-26T01:01:29.886Z,78.62
2018-12-26T01:03:57.157Z,78.76
2018-12-26T01:06:24.358Z,78.56
2018-12-26T01:08:54.165Z,78.73
2018-12-26T01:11:21.467Z,78.73
2018-12-26T01:13:48.699Z,78.74
2018-12-26T01:16:15.925Z,78.92
2018-12-26T01:18:43.223Z,78.92
2018-12-26T01:21:18.775Z,78.65
2018-12-26T01:23:46.063Z,78.34
2018-12-26T01:26:19.076Z,78.95
2018-12-26T01:28:43.497Z,79.34
2018-12-26T01:31:10.771Z,78.89
2018-12-26T01:33:38.036Z,79.11
2018-12-26T01:36:05.245Z,79.16
2018-12-26T01:38:32.458Z,79.70
2018-12-26T01:40:59.718Z,79.75
2018-12-26T01:43:26.939Z,79.95
2018-12-26T01:45:54.134Z,79.82
2018-12-26T01:48:21.380Z,80.33
2018-12-26T01:50:48.593Z,80.22
2018-12-26T01:53:15.811Z,79.88
2018-12-26T01:55:43.091Z,80.00
2018-12-26T01:58:10.362Z,79.85
2018-12-26T02:00:37.667Z,80.01
2018-12-26T02:03:04.951Z,80.65
2018-12-26T02:05:32.289Z,80.68
2018-12-26T02:07:59.487Z,80.70
2018-12-26T02:10:26.739Z,79.95
2018-12-26T02:12:53.974Z,80.62
2018-12-26T02:15:21.196Z,80.36
2018-12-26T02:17:48.439Z,80.36
2018-12-26T02:20:15.665Z,80.34
2018-12-26T02:22:42.916Z,80.69
2018-12-26T02:25:10.121Z,80.51
2018-12-26T02:27:37.339Z,79.80
2018-12-26T02:30:04.918Z,80.46
2018-12-26T02:32:32.148Z,80.34
2018-12-26T02:34:59.352Z,80.90
2018-12-26T02:37:29.167Z,80.95
2018-12-26T02:39:56.413Z,80.80
2018-12-26T02:42:23.704Z,80.90
2018-12-26T02:44:54.014Z,80.66
2018-12-26T02:47:21.619Z,80.66
2018-12-26T02:49:48.863Z,80.69
2018-12-26T02:52:16.122Z,80.49
2018-12-26T02:54:43.347Z,80.89
2018-12-26T02:57:10.570Z,80.49
2018-12-26T02:59:37.862Z,80.58
2018-12-26T03:02:05.101Z,80.91
2018-12-26T03:04:32.345Z,80.82
2018-12-26T03:06:59.623Z,80.11
2018-12-26T03:09:26.819Z,80.86
2018-12-26T03:11:54.035Z,80.96
2018-12-26T03:14:21.295Z,80.30
2018-12-26T03:16:48.523Z,80.39
2018-12-26T03:19:15.726Z,80.00
2018-12-26T03:21:43.024Z,80.09
2018-12-26T03:24:10.248Z,80.12
2018-12-26T03:26:37.473Z,80.51
2018-12-26T03:29:04.739Z,80.24
2018-12-26T03:31:31.944Z,80.54
2018-12-26T03:33:59.199Z,80.50
2018-12-26T03:36:26.736Z,79.98
2018-12-26T03:38:53.958Z,79.98
2018-12-26T03:41:21.427Z,80.62
2018-12-26T03:43:48.701Z,80.28
2018-12-26T03:46:15.920Z,80.99
2018-12-26T03:48:43.257Z,81.02
2018-12-26T03:51:10.536Z,80.93
2018-12-26T03:53:37.939Z,81.41
2018-12-26T03:56:05.141Z,81.20
2018-12-26T03:58:32.390Z,81.46
2018-12-26T04:00:59.642Z,81.85
2018-12-26T04:03:26.915Z,81.13
2018-12-26T04:05:54.195Z,81.01
2018-12-26T04:08:21.409Z,80.79
2018-12-26T04:10:48.849Z,81.34
2018-12-26T04:13:16.101Z,81.25
2018-12-26T04:15:43.310Z,81.43
2018-12-26T04:18:10.910Z,81.22
2018-12-26T04:20:38.299Z,80.50
2018-12-26T04:23:05.535Z,80.82
2018-12-26T04:25:32.840Z,80.18
2018-12-26T04:28:00.085Z,80.77
2018-12-26T04:30:27.304Z,82.03
2018-12-26T04:32:54.556Z,81.79
2018-12-26T04:35:21.783Z,82.03
2018-12-26T04:37:49.026Z,81.64
2018-12-26T04:40:16.234Z,81.81
2018-12-26T04:42:43.492Z,80.43
2018-12-26T04:45:10.731Z,80.73
2018-12-26T04:47:37.947Z,81.95
2018-12-26T04:50:05.274Z,80.95
2018-12-26T04:52:32.528Z,81.48
2018-12-26T04:54:59.758Z,81.68
2018-12-26T04:57:26.982Z,82.10
2018-12-26T04:59:54.248Z,81.76
2018-12-26T05:02:21.523Z,81.78
2018-12-26T05:04:48.797Z,80.90
2018-12-26T05:07:16.054Z,81.61
2018-12-26T05:09:43.321Z,81.96
2018-12-26T05:12:10.598Z,81.61
2018-12-26T05:14:37.819Z,82.92
2018-12-26T05:17:05.055Z,82.83
2018-12-26T05:19:32.294Z,82.98
2018-12-26T05:21:59.510Z,82.63
2018-12-26T05:24:26.765Z,83.40
2018-12-26T05:26:53.964Z,81.67
2018-12-26T05:29:21.246Z,81.82
2018-12-26T05:31:48.538Z,82.37
2018-12-26T05:34:15.755Z,81.84
2018-12-26T05:36:43.023Z,82.61
2018-12-26T05:39:10.275Z,82.69
2018-12-26T05:41:37.510Z,82.77
2018-12-26T05:44:04.915Z,82.54
2018-12-26T05:46:32.134Z,82.94
2018-12-26T05:48:59.417Z,82.61
2018-12-26T05:51:26.672Z,82.85
2018-12-26T05:53:53.896Z,83.18
2018-12-26T05:56:21.087Z,83.07
2018-12-26T05:58:48.323Z,81.95
2018-12-26T06:01:15.552Z,82.03
2018-12-26T06:03:42.940Z,83.11
2018-12-26T06:06:10.160Z,82.75
2018-12-26T06:08:37.353Z,82.44
2018-12-26T06:11:04.594Z,82.50
2018-12-26T06:13:31.803Z,83.09
2018-12-26T06:15:59.041Z,83.09
2018-12-26T06:18:26.250Z,83.47
2018-12-26T06:20:53.515Z,82.81
2018-12-26T06:23:20.765Z,83.10
2018-12-26T06:25:48.046Z,83.50
2018-12-26T06:28:15.302Z,83.04
2018-12-26T06:30:42.591Z,82.34
2018-12-26T06:33:09.813Z,83.24
2018-12-26T06:35:37.048Z,82.40
2018-12-26T06:38:05.599Z,83.08
2018-12-26T06:40:35.384Z,82.88
2018-12-26T06:43:02.588Z,83.34
2018-12-26T06:45:29.838Z,81.62
2018-12-26T06:47:57.055Z,82.86
2018-12-26T06:50:24.253Z,82.27
2018-12-26T06:52:51.533Z,82.13
2018-12-26T06:55:18.759Z,82.06
2018-12-26T06:57:45.974Z,82.08
2018-12-26T07:00:13.252Z,82.08
2018-12-26T07:02:40.504Z,82.65
2018-12-26T07:05:07.743Z,83.07
2018-12-26T07:07:34.981Z,83.07
2018-12-26T07:10:02.813Z,83.21
2018-12-26T07:12:30.091Z,83.01
2018-12-26T07:14:57.311Z,82.55
2018-12-26T07:17:24.512Z,82.73
2018-12-26T07:19:51.779Z,81.73
2018-12-26T07:22:19.381Z,82.49
2018-12-26T07:24:46.602Z,82.94
2018-12-26T07:27:13.870Z,82.89
2018-12-26T07:29:41.089Z,82.44
2018-12-26T07:32:09.130Z,82.20
2018-12-26T07:34:42.197Z,81.24
2018-12-26T07:37:05.497Z,80.70
2018-12-26T07:39:32.709Z,80.70
2018-12-26T07:42:00.002Z,81.19
2018-12-26T07:44:27.859Z,81.86
2018-12-26T07:46:55.087Z,81.00
2018-12-26T07:49:22.353Z,82.13
2018-12-26T07:51:50.560Z,82.40
2018-12-26T07:54:17.822Z,82.44
2018-12-26T07:56:47.265Z,80.17
2018-12-26T07:59:14.539Z,82.21
2018-12-26T08:01:41.804Z,82.23
2018-12-26T08:04:09.123Z,82.23
2018-12-26T08:06:36.378Z,82.42
2018-12-26T08:09:05.611Z,82.20
2018-12-26T08:11:32.824Z,82.65
2018-12-26T08:14:00.059Z,82.61
2018-12-26T08:16:27.316Z,82.24
2018-12-26T08:18:54.583Z,82.17
2018-12-26T08:21:21.811Z,82.17
2018-12-26T08:23:52.084Z,81.91
2018-12-26T08:26:19.310Z,81.77
2018-12-26T08:28:46.612Z,81.70
2018-12-26T08:31:13.903Z,81.94
2018-12-26T08:33:41.133Z,81.94
2018-12-26T08:36:08.398Z,81.58
2018-12-26T08:38:35.611Z,81.16
2018-12-26T08:41:02.906Z,80.72
2018-12-26T08:43:30.187Z,81.56
2018-12-26T08:45:57.410Z,82.14
2018-12-26T08:48:24.673Z,81.75
2018-12-26T08:50:51.964Z,82.08
2018-12-26T08:53:19.218Z,81.42
2018-12-26T08:55:46.463Z,82.79
2018-12-26T08:58:13.750Z,82.70
2018-12-26T09:00:40.958Z,82.39
2018-12-26T09:03:08.209Z,82.29
2018-12-26T09:05:35.464Z,82.36
2018-12-26T09:08:02.747Z,81.87
2018-12-26T09:10:29.987Z,82.32
2018-12-26T09:12:57.218Z,82.27
2018-12-26T09:15:24.450Z,82.15
2018-12-26T09:17:51.680Z,80.82
2018-12-26T09:20:19.085Z,81.52
2018-12-26T09:22:46.355Z,81.00
2018-12-26T09:25:14.594Z,81.20
2018-12-26T09:27:41.830Z,81.11
2018-12-26T09:30:09.622Z,81.29
2018-12-26T09:32:36.847Z,81.69
2018-12-26T09:35:05.833Z,81.69
2018-12-26T09:37:33.119Z,81.26
2018-12-26T09:40:00.332Z,81.43
2018-12-26T09:42:27.549Z,81.23
2018-12-26T09:44:54.944Z,81.48
2018-12-26T09:47:22.183Z,81.98
2018-12-26T09:49:49.458Z,81.67
2018-12-26T09:52:16.691Z,81.72
2018-12-26T09:54:43.905Z,81.72
2018-12-26T09:57:11.175Z,82.08
2018-12-26T09:59:38.529Z,82.08
2018-12-26T10:02:05.765Z,81.65
2018-12-26T10:04:33.036Z,81.29
2018-12-26T10:07:00.301Z,81.15
2018-12-26T10:09:27.523Z,81.15
2018-12-26T10:11:54.764Z,81.66
2018-12-26T10:14:22.079Z,82.09
2018-12-26T10:16:49.295Z,82.09
2018-12-26T10:19:16.540Z,80.98
2018-12-26T10:21:43.798Z,80.98
2018-12-26T10:24:11.014Z,81.32
2018-12-26T10:26:38.246Z,81.30
2018-12-26T10:29:05.518Z,81.43
2018-12-26T10:31:32.742Z,81.15
2018-12-26T10:34:00.017Z,81.26
2018-12-26T10:36:27.308Z,81.26
2018-12-26T10:38:54.635Z,81.10
2018-12-26T10:41:21.932Z,81.67
2018-12-26T10:43:49.157Z,81.23
2018-12-26T10:46:16.404Z,80.21
2018-12-26T10:48:43.662Z,80.21
2018-12-26T10:51:10.886Z,81.03
2018-12-26T10:53:38.129Z,80.71
2018-12-26T10:56:05.427Z,80.95
2018-12-26T10:58:32.859Z,81.02
2018-12-26T11:01:02.372Z,80.88
2018-12-26T11:03:29.625Z,79.49
2018-12-26T11:05:56.886Z,81.36
2018-12-26T11:08:24.115Z,80.72
2018-12-26T11:10:51.487Z,81.22
2018-12-26T11:13:18.954Z,80.04
2018-12-26T11:15:46.163Z,81.50
2018-12-26T11:18:14.163Z,80.98
2018-12-26T11:20:41.776Z,81.38
2018-12-26T11:23:09.005Z,80.32
2018-12-26T11:25:36.247Z,80.69
2018-12-26T11:28:03.463Z,80.49
2018-12-26T11:30:30.748Z,80.49
2018-12-26T11:32:57.972Z,79.79
2018-12-26T11:35:25.204Z,80.87
2018-12-26T11:37:52.571Z,80.87
2018-12-26T11:40:19.803Z,80.87
2018-12-26T11:42:47.428Z,80.84
2018-12-26T11:45:14.789Z,80.63
2018-12-26T11:47:42.095Z,80.47
2018-12-26T11:50:09.345Z,81.03
2018-12-26T11:52:36.605Z,80.62
2018-12-26T11:55:03.989Z,81.39
2018-12-26T11:57:31.203Z,81.38
2018-12-26T11:59:58.433Z,80.85
2018-12-26T12:02:25.696Z,80.85
2018-12-26T12:04:53.382Z,81.24
2018-12-26T12:07:21.210Z,81.24
2018-12-26T12:09:48.498Z,80.97
2018-12-26T12:12:15.880Z,81.47
2018-12-26T12:14:43.184Z,81.62
2018-12-26T12:17:10.441Z,80.61
2018-12-26T12:19:39.632Z,79.34
2018-12-26T12:22:07.138Z,80.07
2018-12-26T12:24:34.397Z,80.24
2018-12-26T12:27:01.627Z,80.94
2018-12-26T12:29:35.977Z,80.95
2018-12-26T12:31:58.057Z,80.95
2018-12-26T12:34:25.301Z,80.50
2018-12-26T12:36:52.587Z,80.92
2018-12-26T12:39:19.894Z,80.64
2018-12-26T12:41:47.155Z,81.01
2018-12-26T12:44:14.425Z,80.71
2018-12-26T12:46:41.688Z,80.71
2018-12-26T12:49:09.158Z,80.77
2018-12-26T12:51:36.424Z,80.85
2018-12-26T12:54:04.482Z,80.97
2018-12-26T12:56:31.854Z,80.36
2018-12-26T12:58:59.614Z,80.69
2018-12-26T13:01:27.108Z,80.28
2018-12-26T13:03:54.333Z,80.28
2018-12-26T13:06:21.582Z,80.68
2018-12-26T13:08:49.421Z,80.96
2018-12-26T13:11:16.611Z,80.54
2018-12-26T13:13:43.969Z,80.26
2018-12-26T13:16:11.251Z,80.26
2018-12-26T13:18:38.513Z,80.06
2018-12-26T13:21:05.751Z,80.56
2018-12-26T13:23:33.331Z,80.79
2018-12-26T13:26:00.571Z,80.70
2018-12-26T13:28:27.783Z,80.70
2018-12-26T13:30:55.055Z,80.42
2018-12-26T13:33:24.170Z,80.15
2018-12-26T13:35:51.418Z,79.68
2018-12-26T13:38:18.642Z,80.28
2018-12-26T13:40:45.939Z,80.43
2018-12-26T13:43:14.218Z,79.94
2018-12-26T13:45:41.447Z,80.17
2018-12-26T13:48:08.706Z,80.08
2018-12-26T13:50:35.960Z,80.30
2018-12-26T13:53:03.202Z,80.78
2018-12-26T13:55:30.503Z,81.01
2018-12-26T13:57:57.733Z,80.97
2018-12-26T14:00:24.974Z,80.81
2018-12-26T14:02:52.372Z,80.81
2018-12-26T14:05:19.607Z,80.87
2018-12-26T14:07:46.833Z,81.45
2018-12-26T14:10:14.108Z,81.45
2018-12-26T14:12:42.476Z,81.09
2018-12-26T14:15:09.887Z,80.84
2018-12-26T14:17:37.139Z,81.21
2018-12-26T14:20:04.510Z,81.38
2018-12-26T14:22:31.763Z,81.24
2018-12-26T14:24:59.016Z,81.24
2018-12-26T14:27:29.455Z,80.38
2018-12-26T14:29:55.424Z,80.73
2018-12-26T14:32:22.635Z,80.77
2018-12-26T14:34:49.914Z,81.13
2018-12-26T14:37:17.136Z,81.26
2018-12-26T14:39:44.409Z,81.08
2018-12-26T14:42:11.624Z,80.89
2018-12-26T14:44:38.853Z,80.74
2018-12-26T14:47:06.166Z,80.56
2018-12-26T14:49:33.480Z,81.18
2018-12-26T14:52:00.745Z,80.48
2018-12-26T14:54:28.027Z,80.48
2018-12-26T14:56:55.251Z,81.07
2018-12-26T14:59:22.475Z,81.26
2018-12-26T15:01:49.759Z,80.91
2018-12-26T15:04:16.965Z,81.19
2018-12-26T15:06:44.206Z,81.43
2018-12-26T15:09:11.485Z,81.49
2018-12-26T15:11:38.717Z,81.04
2018-12-26T15:14:05.957Z,81.04
2018-12-26T15:16:33.235Z,80.94
2018-12-26T15:19:19.917Z,80.94
2018-12-26T15:21:47.170Z,80.67
2018-12-26T15:24:14.399Z,80.57
2018-12-26T15:26:41.604Z,80.86
2018-12-26T15:29:08.860Z,80.61
2018-12-26T15:31:36.130Z,80.61
2018-12-26T15:34:03.332Z,80.95
2018-12-26T15:36:30.596Z,81.07
2018-12-26T15:38:57.871Z,81.00
2018-12-26T15:41:25.112Z,81.16
2018-12-26T15:43:52.330Z,81.16
2018-12-26T15:46:19.616Z,81.20
2018-12-26T15:48:46.894Z,81.22
2018-12-26T15:51:14.187Z,81.36
2018-12-26T15:53:41.459Z,81.41
2018-12-26T15:56:08.662Z,81.77
2018-12-26T15:58:35.888Z,81.69
2018-12-26T16:01:03.250Z,81.46
2018-12-26T16:03:30.475Z,81.50
2018-12-26T16:05:57.732Z,81.62
2018-12-26T16:08:24.970Z,81.35
2018-12-26T16:10:53.873Z,81.02
2018-12-26T16:13:21.125Z,81.01
2018-12-26T16:15:48.366Z,81.01
2018-12-26T16:18:15.621Z,81.30
2018-12-26T16:20:42.896Z,81.30
2018-12-26T16:23:10.111Z,80.97
2018-12-26T16:25:37.345Z,80.95
2018-12-26T16:28:04.591Z,80.64
2018-12-26T16:30:32.762Z,80.71
2018-12-26T16:32:59.964Z,80.61
2018-12-26T16:35:27.219Z,80.40
2018-12-26T16:38:01.509Z,80.12
2018-12-26T16:40:23.554Z,80.11
2018-12-26T16:42:50.834Z,80.48
2018-12-26T16:45:18.159Z,80.64
2018-12-26T16:47:45.391Z,80.68
2018-12-26T16:50:13.095Z,80.21
2018-12-26T16:52:40.328Z,80.32
2018-12-26T16:55:08.615Z,80.32
2018-12-26T16:57:35.861Z,79.88
2018-12-26T17:00:03.386Z,80.06
2018-12-26T17:02:30.678Z,80.26
2018-12-26T17:04:57.903Z,79.91
2018-12-26T17:07:25.180Z,80.05
2018-12-26T17:09:52.435Z,79.98
2018-12-26T17:12:19.669Z,80.06
2018-12-26T17:14:46.932Z,79.87
2018-12-26T17:17:14.275Z,80.24
2018-12-26T17:19:41.528Z,79.88
2018-12-26T17:22:08.773Z,79.46
2018-12-26T17:24:36.028Z,79.88
2018-12-26T17:27:03.257Z,79.52
2018-12-26T17:29:30.535Z,79.34
2018-12-26T17:31:57.796Z,79.76
2018-12-26T17:34:25.057Z,79.63
2018-12-26T17:36:52.346Z,79.32
2018-12-26T17:39:19.586Z,79.42
2018-12-26T17:41:46.854Z,79.38
2018-12-26T17:44:14.181Z,79.29
2018-12-26T17:46:41.450Z,79.21
2018-12-26T17:49:08.858Z,79.21
2018-12-26T17:51:36.227Z,79.36
2018-12-26T17:54:24.340Z,79.63
2018-12-26T17:57:09.783Z,79.21
2018-12-26T17:59:55.615Z,79.26
2018-12-26T18:02:29.604Z,79.29
2018-12-26T18:04:56.852Z,79.29
2018-12-26T18:07:24.106Z,79.36
2018-12-26T18:09:51.344Z,79.19
2018-12-26T18:12:18.583Z,78.79
2018-12-26T18:14:45.836Z,78.78
2018-12-26T18:17:13.103Z,78.62
2018-12-26T18:19:40.371Z,79.12
2018-12-26T18:22:07.734Z,78.73
2018-12-26T18:24:34.950Z,78.86
2018-12-26T18:27:02.167Z,78.53
2018-12-26T18:29:29.431Z,78.22
2018-12-26T18:31:56.657Z,78.81
2018-12-26T18:34:23.932Z,78.13
2018-12-26T18:36:52.293Z,78.53
2018-12-26T18:39:19.543Z,78.54
2018-12-26T18:41:46.776Z,78.41
2018-12-26T18:44:14.003Z,79.37
2018-12-26T18:46:41.264Z,78.07
2018-12-26T18:49:08.496Z,78.57
2018-12-26T18:51:35.783Z,78.94
2018-12-26T18:54:03.514Z,78.04
2018-12-26T18:56:30.939Z,78.35
2018-12-26T18:58:58.156Z,78.68
2018-12-26T19:01:30.586Z,78.44
2018-12-26T19:03:54.547Z,78.11
2018-12-26T19:06:21.769Z,78.27
2018-12-26T19:08:49.038Z,78.62
2018-12-26T19:11:16.274Z,78.85
2018-12-26T19:13:43.473Z,78.69
2018-12-26T19:16:10.730Z,78.01
2018-12-26T19:18:37.980Z,78.16
2018-12-26T19:21:05.186Z,77.87
2018-12-26T19:23:32.418Z,78.02
2018-12-26T19:25:59.705Z,77.92
2018-12-26T19:28:26.943Z,78.11
2018-12-26T19:30:54.194Z,78.12
2018-12-26T19:33:21.464Z,78.13
2018-12-26T19:35:48.706Z,78.30
2018-12-26T19:38:15.941Z,77.92
2018-12-26T19:40:43.199Z,77.94
2018-12-26T19:43:10.413Z,78.00
2018-12-26T19:45:37.638Z,78.41
2018-12-26T19:48:04.923Z,78.77
2018-12-26T19:50:32.219Z,79.33
2018-12-26T19:52:59.464Z,78.37
2018-12-26T19:55:26.757Z,77.79
2018-12-26T19:57:53.997Z,77.97
2018-12-26T20:00:21.224Z,78.00
2018-12-26T20:02:48.577Z,78.35
2018-12-26T20:05:15.797Z,78.41
2018-12-26T20:07:43.042Z,78.04
2018-12-26T20:10:10.615Z,77.92
2018-12-26T20:12:37.835Z,78.00
2018-12-26T20:15:05.116Z,78.22
2018-12-26T20:17:32.606Z,78.06
2018-12-26T20:19:59.824Z,78.31
2018-12-26T20:22:27.117Z,78.81
2018-12-26T20:24:54.385Z,78.73
2018-12-26T20:27:21.886Z,78.55
2018-12-26T20:29:49.099Z,78.31
2018-12-26T20:32:16.392Z,78.56
2018-12-26T20:34:43.628Z,78.53
2018-12-26T20:37:10.846Z,78.15
2018-12-26T20:39:38.219Z,78.11
2018-12-26T20:42:05.498Z,78.39
2018-12-26T20:44:32.702Z,78.65
2018-12-26T20:46:59.927Z,78.87
2018-12-26T20:49:27.199Z,78.95
2018-12-26T20:51:54.424Z,78.65
2018-12-26T20:54:21.719Z,79.11
2018-12-26T20:56:48.996Z,79.03
2018-12-26T20:59:16.225Z,78.89
2018-12-26T21:01:43.496Z,79.36
2018-12-26T21:04:10.733Z,79.32
2018-12-26T21:06:37.955Z,79.75
2018-12-26T21:09:06.266Z,79.62
2018-12-26T21:11:33.549Z,78.81
2018-12-26T21:14:00.860Z,79.53
2018-12-26T21:16:28.065Z,79.57
2018-12-26T21:18:55.306Z,79.62
2018-12-26T21:21:22.522Z,78.94
2018-12-26T21:23:49.736Z,78.85
2018-12-26T21:26:16.994Z,79.14
2018-12-26T21:28:44.199Z,80.22
2018-12-26T21:31:11.411Z,79.56
2018-12-26T21:33:40.741Z,79.68
2018-12-26T21:36:07.934Z,79.23
2018-12-26T21:38:35.144Z,79.11
2018-12-26T21:41:02.788Z,79.68
2018-12-26T21:43:30.017Z,79.70
2018-12-26T21:45:57.243Z,79.54
2018-12-26T21:48:24.487Z,79.91
2018-12-26T21:50:51.856Z,79.69
2018-12-26T21:53:19.093Z,79.82
2018-12-26T21:55:46.390Z,79.38
2018-12-26T21:58:13.612Z,79.78
2018-12-26T22:00:40.844Z,79.70
2018-12-26T22:03:08.085Z,79.92
2018-12-26T22:05:35.306Z,80.04
2018-12-26T22:08:02.544Z,79.86
2018-12-26T22:10:29.811Z,79.55
2018-12-26T22:12:57.024Z,80.15
2018-12-26T22:15:24.245Z,79.68
2018-12-26T22:17:51.516Z,79.73
2018-12-26T22:20:19.754Z,79.48
2018-12-26T22:22:46.963Z,79.46
2018-12-26T22:25:16.410Z,79.79
2018-12-26T22:27:43.615Z,80.01
2018-12-26T22:30:11.130Z,80.19
2018-12-26T22:32:38.427Z,79.95
2018-12-26T22:35:05.794Z,79.40
2018-12-26T22:37:33.005Z,79.49
2018-12-26T22:40:00.246Z,79.89
2018-12-26T22:42:27.509Z,79.79
2018-12-26T22:44:54.723Z,79.55
2018-12-26T22:47:21.970Z,79.81
2018-12-26T22:49:49.269Z,80.54
2018-12-26T22:52:16.545Z,80.26
2018-12-26T22:54:43.764Z,80.15
2018-12-26T22:57:12.822Z,80.07
2018-12-26T22:59:40.184Z,79.90
2018-12-26T23:02:07.507Z,80.26
2018-12-26T23:04:34.751Z,80.72
2018-12-26T23:07:01.985Z,79.86
2018-12-26T23:09:29.307Z,80.29
2018-12-26T23:11:57.376Z,80.15
2018-12-26T23:14:24.583Z,79.96
2018-12-26T23:16:51.900Z,80.18
2018-12-26T23:19:19.126Z,80.19
2018-12-26T23:21:46.381Z,80.27
2018-12-26T23:24:13.667Z,80.31
2018-12-26T23:26:40.888Z,80.08
2018-12-26T23:29:08.125Z,80.84
2018-12-26T23:31:35.362Z,80.53
2018-12-26T23:34:02.567Z,80.50
2018-12-26T23:36:29.760Z,80.56
2018-12-26T23:38:57.043Z,80.47
2018-12-26T23:41:24.340Z,80.35
2018-12-26T23:43:51.542Z,80.69
2018-12-26T23:46:18.787Z,79.93
2018-12-26T23:48:46.002Z,80.39
2018-12-26T23:51:13.215Z,81.02
2018-12-26T23:53:40.502Z,80.79
2018-12-26T23:56:07.715Z,80.59
2018-12-26T23:58:34.985Z,80.93
